Terminal Aerodrome Forecast
Issued by NWS

Home | Current Version | Previous Version | Text Only | Print | Product List | Glossary On
Versions: 1 2 3 4 5 6 7 8 9 10 11 12
593
FTPA31 PHFO 211735
TAFHKO
TAF
PHKO 211735Z 2118/2218 10005KT P6SM SCT060
     FM212100 23008KT P6SM FEW040 BKN060
     FM220600 08008KT P6SM FEW030 BKN050=

USA.gov is the U.S. government's official web portal to all federal, state and local government web resources and services.